アシガバート の空港の天気 - METARとTAF

アシガバート空港 ( UTAA / ASB ) - トルクメニスタン アシガバート
飛行場実況気象(Metar)
観測時間06/18 00:00 TMT (06/17 19:00 UTC)
風向・風速北北東 2m/s
視程9000m
天気現象
なし
気温30℃
湿度22%
気圧1005hPa
METARUTAA 171900Z 03004KT 9000 NSC 30/06 Q1005 R88/70D NOSIG
過去の天気等 Google飛行場航空写真 Wunderground天気予報

過去48時間のMETAR

飛行場予報(TAF)
発表時間: 6/17 21:50 TMT (6/17 16:50 UTC)
予報対象時間: 17日23時 TMT ~ 18日23時 TMT
風向・風速南東 7m/s
視程6000m
全天の4割程度の雲 雲底高度 1520m
17日23時 TMT ~ 18日7時 TMT に一時的に
風向・風速南南西 7m/s
全天の4割程度の積乱雲 雲底高度 1520m
18日13時 TMT ~ 18日19時 TMT に一時的に
風向・風速東 6m/s 瞬間風速 11m/s
全天の4割程度の積乱雲 雲底高度 1520m
TAF UTAA 171650Z 1718/1818 13014KT 6000 SCT050
TEMPO 1718/1802 20014KT SCT050CB
TEMPO 1808/1814 09012G22KT SCT050CB